sensor_id;sensor_type;location;lat;lon;timestamp;pressure;altitude;pressure_sealevel;temperature
75428;BMP280;64008;55.612;37.698;2023-03-31T00:01:35;98949.25;;;23.70
75428;BMP280;64008;55.612;37.698;2023-03-31T00:04:07;98956.34;;;23.75
75428;BMP280;64008;55.612;37.698;2023-03-31T00:06:35;98948.94;;;23.72
75428;BMP280;64008;55.612;37.698;2023-03-31T00:09:08;98956.91;;;23.68
75428;BMP280;64008;55.612;37.698;2023-03-31T00:11:34;98951.06;;;23.66
75428;BMP280;64008;55.612;37.698;2023-03-31T00:14:00;98955.88;;;23.73
75428;BMP280;64008;55.612;37.698;2023-03-31T00:16:27;98947.38;;;23.71
75428;BMP280;64008;55.612;37.698;2023-03-31T00:18:52;98956.13;;;23.68
75428;BMP280;64008;55.612;37.698;2023-03-31T00:21:22;98961.53;;;23.68
75428;BMP280;64008;55.612;37.698;2023-03-31T00:23:58;98946.88;;;23.69
75428;BMP280;64008;55.612;37.698;2023-03-31T00:26:25;98952.19;;;23.65
75428;BMP280;64008;55.612;37.698;2023-03-31T00:28:52;98937.59;;;23.66
75428;BMP280;64008;55.612;37.698;2023-03-31T00:31:18;98950.16;;;23.62
75428;BMP280;64008;55.612;37.698;2023-03-31T00:33:44;98939.03;;;23.63
75428;BMP280;64008;55.612;37.698;2023-03-31T00:36:10;98936.09;;;23.69
75428;BMP280;64008;55.612;37.698;2023-03-31T00:38:36;98942.16;;;23.66
75428;BMP280;64008;55.612;37.698;2023-03-31T00:41:02;98935.56;;;23.63
75428;BMP280;64008;55.612;37.698;2023-03-31T00:43:32;98939.03;;;23.63
75428;BMP280;64008;55.612;37.698;2023-03-31T00:46:10;98933.19;;;23.61
75428;BMP280;64008;55.612;37.698;2023-03-31T00:48:52;98938.59;;;23.61
75428;BMP280;64008;55.612;37.698;2023-03-31T00:51:19;98936.78;;;23.66
75428;BMP280;64008;55.612;37.698;2023-03-31T00:53:50;98923.44;;;23.57
75428;BMP280;64008;55.612;37.698;2023-03-31T00:56:19;98918.25;;;23.64
75428;BMP280;64008;55.612;37.698;2023-03-31T00:58:45;98922.31;;;23.58
75428;BMP280;64008;55.612;37.698;2023-03-31T01:01:18;98928.94;;;23.60
75428;BMP280;64008;55.612;37.698;2023-03-31T01:03:45;98924.78;;;23.63
75428;BMP280;64008;55.612;37.698;2023-03-31T01:06:13;98925.09;;;23.61
75428;BMP280;64008;55.612;37.698;2023-03-31T01:08:42;98908.78;;;23.70
75428;BMP280;64008;55.612;37.698;2023-03-31T01:11:10;98900.59;;;23.67
75428;BMP280;64008;55.612;37.698;2023-03-31T01:13:38;98901.97;;;23.60
75428;BMP280;64008;55.612;37.698;2023-03-31T01:16:04;98900.38;;;23.72
75428;BMP280;64008;55.612;37.698;2023-03-31T01:18:30;98905.69;;;23.68
75428;BMP280;64008;55.612;37.698;2023-03-31T01:23:41;98912.06;;;23.63
75428;BMP280;64008;55.612;37.698;2023-03-31T01:37:18;98887.72;;;23.60
75428;BMP280;64008;55.612;37.698;2023-03-31T01:46:03;98884.34;;;23.63
75428;BMP280;64008;55.612;37.698;2023-03-31T01:48:53;98887.25;;;23.58
75428;BMP280;64008;55.612;37.698;2023-03-31T01:51:34;98892.66;;;23.58
75428;BMP280;64008;55.612;37.698;2023-03-31T01:54:20;98885.09;;;23.76
75428;BMP280;64008;55.612;37.698;2023-03-31T01:56:51;98885.88;;;23.64
75428;BMP280;64008;55.612;37.698;2023-03-31T01:59:26;98881.41;;;23.56
75428;BMP280;64008;55.612;37.698;2023-03-31T02:01:56;98886.44;;;23.57
75428;BMP280;64008;55.612;37.698;2023-03-31T02:04:57;98880.41;;;23.60
75428;BMP280;64008;55.612;37.698;2023-03-31T02:07:42;98865.34;;;23.59
75428;BMP280;64008;55.612;37.698;2023-03-31T02:10:11;98869.84;;;23.55
75428;BMP280;64008;55.612;37.698;2023-03-31T02:12:38;98877.94;;;23.55
75428;BMP280;64008;55.612;37.698;2023-03-31T02:15:07;98871.44;;;23.56
75428;BMP280;64008;55.612;37.698;2023-03-31T02:17:34;98875.47;;;23.62
75428;BMP280;64008;55.612;37.698;2023-03-31T02:20:07;98879.25;;;23.61
75428;BMP280;64008;55.612;37.698;2023-03-31T02:22:39;98877.44;;;23.66
75428;BMP280;64008;55.612;37.698;2023-03-31T02:25:09;98884.00;;;23.65
75428;BMP280;64008;55.612;37.698;2023-03-31T02:27:40;98874.47;;;23.55
75428;BMP280;64008;55.612;37.698;2023-03-31T02:30:08;98878.84;;;23.59
75428;BMP280;64008;55.612;37.698;2023-03-31T02:32:39;98888.94;;;23.50
75428;BMP280;64008;55.612;37.698;2023-03-31T02:35:08;98890.50;;;23.51
75428;BMP280;64008;55.612;37.698;2023-03-31T02:37:35;98901.28;;;23.51
75428;BMP280;64008;55.612;37.698;2023-03-31T02:40:05;98891.84;;;23.57
75428;BMP280;64008;55.612;37.698;2023-03-31T02:42:38;98901.28;;;23.51
75428;BMP280;64008;55.612;37.698;2023-03-31T02:48:26;98893.00;;;23.56
75428;BMP280;64008;55.612;37.698;2023-03-31T03:02:24;98904.66;;;23.60
75428;BMP280;64008;55.612;37.698;2023-03-31T03:08:06;98896.31;;;23.66
75428;BMP280;64008;55.612;37.698;2023-03-31T03:10:41;98905.69;;;23.56
75428;BMP280;64008;55.612;37.698;2023-03-31T03:13:18;98895.03;;;23.47
75428;BMP280;64008;55.612;37.698;2023-03-31T03:15:57;98875.38;;;23.47
75428;BMP280;64008;55.612;37.698;2023-03-31T03:18:25;98872.78;;;23.50
75428;BMP280;64008;55.612;37.698;2023-03-31T03:20:50;98876.34;;;23.54
75428;BMP280;64008;55.612;37.698;2023-03-31T03:23:17;98866.25;;;23.51
75428;BMP280;64008;55.612;37.698;2023-03-31T03:25:43;98863.53;;;23.51
75428;BMP280;64008;55.612;37.698;2023-03-31T03:28:10;98858.53;;;23.50
75428;BMP280;64008;55.612;37.698;2023-03-31T03:30:36;98855.47;;;23.51
75428;BMP280;64008;55.612;37.698;2023-03-31T03:33:01;98849.75;;;23.53
75428;BMP280;64008;55.612;37.698;2023-03-31T03:35:30;98837.41;;;23.52
75428;BMP280;64008;55.612;37.698;2023-03-31T03:37:56;98824.13;;;23.47
75428;BMP280;64008;55.612;37.698;2023-03-31T03:40:22;98832.78;;;23.52
75428;BMP280;64008;55.612;37.698;2023-03-31T03:42:47;98828.69;;;23.71
75428;BMP280;64008;55.612;37.698;2023-03-31T03:45:12;98825.59;;;23.56
75428;BMP280;64008;55.612;37.698;2023-03-31T03:47:38;98825.38;;;23.49
75428;BMP280;64008;55.612;37.698;2023-03-31T03:50:04;98824.69;;;23.52
75428;BMP280;64008;55.612;37.698;2023-03-31T03:52:30;98828.16;;;23.53
75428;BMP280;64008;55.612;37.698;2023-03-31T03:54:55;98833.88;;;23.51
75428;BMP280;64008;55.612;37.698;2023-03-31T03:57:20;98817.63;;;23.48
75428;BMP280;64008;55.612;37.698;2023-03-31T03:59:46;98828.50;;;23.51
75428;BMP280;64008;55.612;37.698;2023-03-31T04:02:12;98817.44;;;23.69
75428;BMP280;64008;55.612;37.698;2023-03-31T04:04:37;98796.66;;;23.97
75428;BMP280;64008;55.612;37.698;2023-03-31T04:07:03;98803.19;;;24.12
75428;BMP280;64008;55.612;37.698;2023-03-31T04:09:29;98809.69;;;23.95
75428;BMP280;64008;55.612;37.698;2023-03-31T04:11:55;98813.13;;;25.22
75428;BMP280;64008;55.612;37.698;2023-03-31T04:14:20;98822.56;;;24.62
75428;BMP280;64008;55.612;37.698;2023-03-31T04:16:46;98801.13;;;24.53
75428;BMP280;64008;55.612;37.698;2023-03-31T04:19:13;98805.03;;;24.87
75428;BMP280;64008;55.612;37.698;2023-03-31T04:21:42;98798.34;;;24.34
75428;BMP280;64008;55.612;37.698;2023-03-31T04:24:10;98792.25;;;24.37
75428;BMP280;64008;55.612;37.698;2023-03-31T04:26:40;98788.53;;;24.41
75428;BMP280;64008;55.612;37.698;2023-03-31T04:29:10;98795.47;;;24.42
75428;BMP280;64008;55.612;37.698;2023-03-31T04:31:37;98794.16;;;24.36
75428;BMP280;64008;55.612;37.698;2023-03-31T04:34:10;98792.34;;;24.40
75428;BMP280;64008;55.612;37.698;2023-03-31T04:36:40;98787.22;;;24.51
75428;BMP280;64008;55.612;37.698;2023-03-31T04:39:12;98791.47;;;24.52
75428;BMP280;64008;55.612;37.698;2023-03-31T04:41:37;98789.44;;;24.49
75428;BMP280;64008;55.612;37.698;2023-03-31T04:44:03;98794.75;;;24.77
75428;BMP280;64008;55.612;37.698;2023-03-31T04:46:28;98797.06;;;24.59
75428;BMP280;64008;55.612;37.698;2023-03-31T04:48:54;98799.06;;;24.62
75428;BMP280;64008;55.612;37.698;2023-03-31T04:51:19;98804.09;;;24.64
75428;BMP280;64008;55.612;37.698;2023-03-31T04:53:45;98805.84;;;24.56
75428;BMP280;64008;55.612;37.698;2023-03-31T04:56:11;98810.28;;;24.64
75428;BMP280;64008;55.612;37.698;2023-03-31T04:58:37;98804.78;;;25.12
75428;BMP280;64008;55.612;37.698;2023-03-31T05:01:03;98810.84;;;24.89
75428;BMP280;64008;55.612;37.698;2023-03-31T05:03:32;98809.13;;;24.65
75428;BMP280;64008;55.612;37.698;2023-03-31T05:05:58;98801.00;;;25.16
75428;BMP280;64008;55.612;37.698;2023-03-31T05:08:24;98813.44;;;25.37
75428;BMP280;64008;55.612;37.698;2023-03-31T05:10:51;98811.00;;;25.51
75428;BMP280;64008;55.612;37.698;2023-03-31T05:13:16;98801.53;;;25.41
75428;BMP280;64008;55.612;37.698;2023-03-31T05:15:42;98809.59;;;25.38
75428;BMP280;64008;55.612;37.698;2023-03-31T05:18:09;98800.25;;;25.16
75428;BMP280;64008;55.612;37.698;2023-03-31T05:20:35;98802.38;;;24.91
75428;BMP280;64008;55.612;37.698;2023-03-31T05:23:01;98791.72;;;24.63
75428;BMP280;64008;55.612;37.698;2023-03-31T05:25:26;98785.44;;;24.59
75428;BMP280;64008;55.612;37.698;2023-03-31T05:27:58;98790.41;;;24.57
75428;BMP280;64008;55.612;37.698;2023-03-31T05:30:24;98783.00;;;24.53
75428;BMP280;64008;55.612;37.698;2023-03-31T05:32:54;98782.25;;;24.37
75428;BMP280;64008;55.612;37.698;2023-03-31T05:35:20;98777.69;;;24.57
75428;BMP280;64008;55.612;37.698;2023-03-31T05:37:46;98776.22;;;24.28
75428;BMP280;64008;55.612;37.698;2023-03-31T05:40:11;98769.06;;;24.36
75428;BMP280;64008;55.612;37.698;2023-03-31T05:42:37;98763.69;;;24.36
75428;BMP280;64008;55.612;37.698;2023-03-31T05:45:03;98759.69;;;24.29
75428;BMP280;64008;55.612;37.698;2023-03-31T05:47:29;98765.16;;;24.33
75428;BMP280;64008;55.612;37.698;2023-03-31T05:49:54;98756.88;;;24.42
75428;BMP280;64008;55.612;37.698;2023-03-31T05:52:20;98762.28;;;24.26
75428;BMP280;64008;55.612;37.698;2023-03-31T05:54:46;98749.28;;;24.31
75428;BMP280;64008;55.612;37.698;2023-03-31T05:57:11;98765.06;;;24.29
75428;BMP280;64008;55.612;37.698;2023-03-31T05:59:37;98751.75;;;24.21
75428;BMP280;64008;55.612;37.698;2023-03-31T06:02:05;98763.19;;;24.30
75428;BMP280;64008;55.612;37.698;2023-03-31T06:04:30;98758.13;;;24.28
75428;BMP280;64008;55.612;37.698;2023-03-31T06:06:57;98757.88;;;24.34
75428;BMP280;64008;55.612;37.698;2023-03-31T06:09:23;98762.78;;;24.31
75428;BMP280;64008;55.612;37.698;2023-03-31T06:11:49;98763.97;;;24.30
75428;BMP280;64008;55.612;37.698;2023-03-31T06:14:15;98763.25;;;24.34
75428;BMP280;64008;55.612;37.698;2023-03-31T06:16:40;98763.34;;;24.37
75428;BMP280;64008;55.612;37.698;2023-03-31T06:19:06;98753.75;;;24.40
75428;BMP280;64008;55.612;37.698;2023-03-31T06:21:32;98749.13;;;24.40
75428;BMP280;64008;55.612;37.698;2023-03-31T06:23:59;98749.63;;;24.46
75428;BMP280;64008;55.612;37.698;2023-03-31T06:26:25;98760.63;;;24.69
75428;BMP280;64008;55.612;37.698;2023-03-31T06:28:52;98762.97;;;24.54
75428;BMP280;64008;55.612;37.698;2023-03-31T06:31:22;98760.72;;;24.25
75428;BMP280;64008;55.612;37.698;2023-03-31T06:33:49;98755.72;;;23.95
75428;BMP280;64008;55.612;37.698;2023-03-31T06:36:16;98751.44;;;23.78
75428;BMP280;64008;55.612;37.698;2023-03-31T06:38:43;98754.97;;;23.67
75428;BMP280;64008;55.612;37.698;2023-03-31T06:41:10;98768.06;;;23.80
75428;BMP280;64008;55.612;37.698;2023-03-31T06:43:36;98760.28;;;24.07
75428;BMP280;64008;55.612;37.698;2023-03-31T06:46:02;98763.16;;;24.14
75428;BMP280;64008;55.612;37.698;2023-03-31T06:48:28;98761.41;;;24.22
75428;BMP280;64008;55.612;37.698;2023-03-31T06:50:54;98755.06;;;24.14
75428;BMP280;64008;55.612;37.698;2023-03-31T06:53:20;98753.84;;;24.12
75428;BMP280;64008;55.612;37.698;2023-03-31T06:55:46;98752.44;;;24.18
75428;BMP280;64008;55.612;37.698;2023-03-31T06:58:12;98739.31;;;24.16
75428;BMP280;64008;55.612;37.698;2023-03-31T07:00:37;98747.66;;;24.11
75428;BMP280;64008;55.612;37.698;2023-03-31T07:03:03;98742.69;;;24.29
75428;BMP280;64008;55.612;37.698;2023-03-31T07:05:29;98742.34;;;24.15
75428;BMP280;64008;55.612;37.698;2023-03-31T07:07:56;98746.78;;;24.07
75428;BMP280;64008;55.612;37.698;2023-03-31T07:10:24;98754.94;;;24.42
75428;BMP280;64008;55.612;37.698;2023-03-31T07:12:50;98750.38;;;24.11
75428;BMP280;64008;55.612;37.698;2023-03-31T07:15:16;98743.28;;;23.91
75428;BMP280;64008;55.612;37.698;2023-03-31T07:17:42;98741.69;;;23.74
75428;BMP280;64008;55.612;37.698;2023-03-31T07:20:12;98737.69;;;23.68
75428;BMP280;64008;55.612;37.698;2023-03-31T07:22:42;98740.25;;;23.64
75428;BMP280;64008;55.612;37.698;2023-03-31T07:25:08;98733.91;;;24.00
75428;BMP280;64008;55.612;37.698;2023-03-31T07:27:34;98735.38;;;24.29
75428;BMP280;64008;55.612;37.698;2023-03-31T07:30:01;98733.78;;;24.44
75428;BMP280;64008;55.612;37.698;2023-03-31T07:32:26;98727.03;;;24.19
75428;BMP280;64008;55.612;37.698;2023-03-31T07:34:52;98732.09;;;24.04
75428;BMP280;64008;55.612;37.698;2023-03-31T07:37:17;98728.22;;;24.21
75428;BMP280;64008;55.612;37.698;2023-03-31T07:39:43;98725.34;;;24.46
75428;BMP280;64008;55.612;37.698;2023-03-31T07:42:08;98726.91;;;24.31
75428;BMP280;64008;55.612;37.698;2023-03-31T07:44:35;98727.47;;;24.21
75428;BMP280;64008;55.612;37.698;2023-03-31T07:47:02;98731.47;;;24.11
75428;BMP280;64008;55.612;37.698;2023-03-31T07:49:31;98727.63;;;24.12
75428;BMP280;64008;55.612;37.698;2023-03-31T07:51:57;98727.97;;;24.11
75428;BMP280;64008;55.612;37.698;2023-03-31T07:54:23;98722.88;;;24.57
75428;BMP280;64008;55.612;37.698;2023-03-31T07:56:48;98733.69;;;24.57
75428;BMP280;64008;55.612;37.698;2023-03-31T07:59:14;98722.06;;;24.37
75428;BMP280;64008;55.612;37.698;2023-03-31T08:01:40;98725.81;;;24.16
75428;BMP280;64008;55.612;37.698;2023-03-31T08:04:05;98717.44;;;24.21
75428;BMP280;64008;55.612;37.698;2023-03-31T08:06:31;98716.13;;;24.15
75428;BMP280;64008;55.612;37.698;2023-03-31T08:08:57;98716.13;;;24.15
75428;BMP280;64008;55.612;37.698;2023-03-31T08:11:22;98719.16;;;24.14
75428;BMP280;64008;55.612;37.698;2023-03-31T08:13:49;98714.66;;;24.34
75428;BMP280;64008;55.612;37.698;2023-03-31T08:16:14;98705.06;;;24.36
75428;BMP280;64008;55.612;37.698;2023-03-31T08:18:40;98701.78;;;24.27
75428;BMP280;64008;55.612;37.698;2023-03-31T08:21:06;98687.84;;;24.09
75428;BMP280;64008;55.612;37.698;2023-03-31T08:23:31;98694.03;;;24.09
75428;BMP280;64008;55.612;37.698;2023-03-31T08:26:11;98699.72;;;24.04
75428;BMP280;64008;55.612;37.698;2023-03-31T08:28:37;98682.72;;;24.04
75428;BMP280;64008;55.612;37.698;2023-03-31T08:31:05;98673.84;;;24.03
75428;BMP280;64008;55.612;37.698;2023-03-31T08:33:31;98680.00;;;24.04
75428;BMP280;64008;55.612;37.698;2023-03-31T08:36:05;98671.84;;;24.00
75428;BMP280;64008;55.612;37.698;2023-03-31T08:38:34;98674.88;;;23.99
75428;BMP280;64008;55.612;37.698;2023-03-31T08:41:02;98668.34;;;24.00
75428;BMP280;64008;55.612;37.698;2023-03-31T08:43:30;98678.25;;;23.96
75428;BMP280;64008;55.612;37.698;2023-03-31T08:45:58;98670.25;;;23.99
75428;BMP280;64008;55.612;37.698;2023-03-31T08:48:44;98667.22;;;24.01
75428;BMP280;64008;55.612;37.698;2023-03-31T08:53:58;98665.91;;;24.11
75428;BMP280;64008;55.612;37.698;2023-03-31T08:56:27;98654.25;;;24.06
75428;BMP280;64008;55.612;37.698;2023-03-31T08:58:53;98655.84;;;24.07
75428;BMP280;64008;55.612;37.698;2023-03-31T09:12:24;98645.34;;;24.22
75428;BMP280;64008;55.612;37.698;2023-03-31T09:15:08;98640.91;;;24.14
75428;BMP280;64008;55.612;37.698;2023-03-31T09:17:40;98642.16;;;24.16
75428;BMP280;64008;55.612;37.698;2023-03-31T09:20:28;98638.53;;;24.28
75428;BMP280;64008;55.612;37.698;2023-03-31T09:23:04;98644.13;;;24.35
75428;BMP280;64008;55.612;37.698;2023-03-31T09:25:33;98629.16;;;24.22
75428;BMP280;64008;55.612;37.698;2023-03-31T09:28:02;98626.44;;;24.22
75428;BMP280;64008;55.612;37.698;2023-03-31T09:30:30;98621.22;;;24.29
75428;BMP280;64008;55.612;37.698;2023-03-31T09:35:59;98618.84;;;24.08
75428;BMP280;64008;55.612;37.698;2023-03-31T09:38:25;98618.53;;;24.13
75428;BMP280;64008;55.612;37.698;2023-03-31T09:40:57;98611.16;;;24.10
75428;BMP280;64008;55.612;37.698;2023-03-31T09:43:25;98610.38;;;24.09
75428;BMP280;64008;55.612;37.698;2023-03-31T09:45:52;98601.81;;;24.23
75428;BMP280;64008;55.612;37.698;2023-03-31T09:48:18;98597.91;;;24.21
75428;BMP280;64008;55.612;37.698;2023-03-31T09:51:15;98598.75;;;24.25
75428;BMP280;64008;55.612;37.698;2023-03-31T09:53:48;98599.97;;;24.27
75428;BMP280;64008;55.612;37.698;2023-03-31T09:56:30;98603.09;;;24.29
75428;BMP280;64008;55.612;37.698;2023-03-31T09:59:00;98590.44;;;24.14
75428;BMP280;64008;55.612;37.698;2023-03-31T10:01:27;98590.41;;;24.49
75428;BMP280;64008;55.612;37.698;2023-03-31T10:03:54;98590.63;;;24.41
75428;BMP280;64008;55.612;37.698;2023-03-31T10:06:22;98589.81;;;24.21
75428;BMP280;64008;55.612;37.698;2023-03-31T10:08:55;98587.31;;;24.12
75428;BMP280;64008;55.612;37.698;2023-03-31T10:11:22;98584.88;;;24.07
75428;BMP280;64008;55.612;37.698;2023-03-31T10:14:00;98587.06;;;24.01
75428;BMP280;64008;55.612;37.698;2023-03-31T10:16:31;98578.81;;;23.94
75428;BMP280;64008;55.612;37.698;2023-03-31T10:19:21;98586.72;;;24.03
75428;BMP280;64008;55.612;37.698;2023-03-31T10:21:55;98582.34;;;23.98
75428;BMP280;64008;55.612;37.698;2023-03-31T10:24:20;98590.91;;;24.00
75428;BMP280;64008;55.612;37.698;2023-03-31T10:26:48;98593.50;;;23.97
75428;BMP280;64008;55.612;37.698;2023-03-31T10:29:20;98591.59;;;23.97
75428;BMP280;64008;55.612;37.698;2023-03-31T10:31:50;98580.81;;;23.97
75428;BMP280;64008;55.612;37.698;2023-03-31T10:34:16;98577.41;;;24.00
75428;BMP280;64008;55.612;37.698;2023-03-31T10:36:48;98577.31;;;23.97
75428;BMP280;64008;55.612;37.698;2023-03-31T10:39:16;98581.94;;;23.96
75428;BMP280;64008;55.612;37.698;2023-03-31T10:41:42;98576.78;;;23.91
75428;BMP280;64008;55.612;37.698;2023-03-31T10:44:29;98578.09;;;23.97
75428;BMP280;64008;55.612;37.698;2023-03-31T10:49:40;98560.91;;;24.05
75428;BMP280;64008;55.612;37.698;2023-03-31T10:52:24;98560.84;;;24.02
75428;BMP280;64008;55.612;37.698;2023-03-31T10:55:11;98559.22;;;24.33
75428;BMP280;64008;55.612;37.698;2023-03-31T10:57:55;98542.38;;;24.39
75428;BMP280;64008;55.612;37.698;2023-03-31T11:00:33;98539.31;;;24.60
75428;BMP280;64008;55.612;37.698;2023-03-31T11:12:20;98521.06;;;24.53
75428;BMP280;64008;55.612;37.698;2023-03-31T11:26:01;98512.25;;;24.18
75428;BMP280;64008;55.612;37.698;2023-03-31T11:28:44;98512.59;;;24.16
75428;BMP280;64008;55.612;37.698;2023-03-31T11:31:43;98498.25;;;24.12
75428;BMP280;64008;55.612;37.698;2023-03-31T11:37:10;98496.97;;;24.06
75428;BMP280;64008;55.612;37.698;2023-03-31T11:42:46;98500.09;;;24.08
75428;BMP280;64008;55.612;37.698;2023-03-31T11:45:26;98498.84;;;24.05
75428;BMP280;64008;55.612;37.698;2023-03-31T11:47:55;98498.78;;;24.02
75428;BMP280;64008;55.612;37.698;2023-03-31T11:50:28;98497.56;;;23.99
75428;BMP280;64008;55.612;37.698;2023-03-31T11:53:02;98497.56;;;23.99
75428;BMP280;64008;55.612;37.698;2023-03-31T11:55:30;98495.25;;;23.98
75428;BMP280;64008;55.612;37.698;2023-03-31T11:58:28;98494.88;;;23.99
75428;BMP280;64008;55.612;37.698;2023-03-31T12:01:05;98483.75;;;24.01
75428;BMP280;64008;55.612;37.698;2023-03-31T12:03:37;98488.00;;;24.02
75428;BMP280;64008;55.612;37.698;2023-03-31T12:06:16;98489.47;;;23.99
75428;BMP280;64008;55.612;37.698;2023-03-31T12:09:00;98490.06;;;24.28
75428;BMP280;64008;55.612;37.698;2023-03-31T12:11:37;98487.78;;;24.11
75428;BMP280;64008;55.612;37.698;2023-03-31T12:16:41;98476.16;;;24.06
75428;BMP280;64008;55.612;37.698;2023-03-31T12:19:16;98473.97;;;24.12
75428;BMP280;64008;55.612;37.698;2023-03-31T12:21:52;98465.44;;;24.10
75428;BMP280;64008;55.612;37.698;2023-03-31T12:24:18;98466.66;;;24.13
75428;BMP280;64008;55.612;37.698;2023-03-31T12:31:43;98452.25;;;24.05
75428;BMP280;64008;55.612;37.698;2023-03-31T12:34:13;98452.25;;;24.05
75428;BMP280;64008;55.612;37.698;2023-03-31T12:39:12;98451.09;;;24.06
75428;BMP280;64008;55.612;37.698;2023-03-31T13:08:53;98426.81;;;24.06
75428;BMP280;64008;55.612;37.698;2023-03-31T13:11:39;98411.41;;;24.06
75428;BMP280;64008;55.612;37.698;2023-03-31T13:14:30;98416.06;;;24.09
75428;BMP280;64008;55.612;37.698;2023-03-31T13:19:44;98419.34;;;23.99
75428;BMP280;64008;55.612;37.698;2023-03-31T13:22:35;98412.44;;;24.21
75428;BMP280;64008;55.612;37.698;2023-03-31T13:27:51;98406.19;;;24.60
75428;BMP280;64008;55.612;37.698;2023-03-31T13:30:57;98399.91;;;25.25
75428;BMP280;64008;55.612;37.698;2023-03-31T13:36:05;98402.38;;;24.61
75428;BMP280;64008;55.612;37.698;2023-03-31T13:44:37;98396.84;;;24.11
75428;BMP280;64008;55.612;37.698;2023-03-31T13:53:14;98401.44;;;24.11
75428;BMP280;64008;55.612;37.698;2023-03-31T14:04:29;98391.38;;;24.07
75428;BMP280;64008;55.612;37.698;2023-03-31T14:07:05;98393.72;;;24.09
75428;BMP280;64008;55.612;37.698;2023-03-31T14:09:34;98383.28;;;24.07
75428;BMP280;64008;55.612;37.698;2023-03-31T14:12:17;98380.59;;;24.07
75428;BMP280;64008;55.612;37.698;2023-03-31T14:14:43;98381.31;;;24.04
75428;BMP280;64008;55.612;37.698;2023-03-31T14:17:09;98376.75;;;24.08
75428;BMP280;64008;55.612;37.698;2023-03-31T14:22:43;98401.00;;;19.71
75428;BMP280;64008;55.612;37.698;2023-03-31T14:33:25;98394.44;;;14.10
75428;BMP280;64008;55.612;37.698;2023-03-31T14:38:45;98390.84;;;15.61
75428;BMP280;64008;55.612;37.698;2023-03-31T14:41:18;98394.16;;;13.88
75428;BMP280;64008;55.612;37.698;2023-03-31T14:43:48;98385.03;;;15.73
75428;BMP280;64008;55.612;37.698;2023-03-31T14:46:18;98380.56;;;17.94
75428;BMP280;64008;55.612;37.698;2023-03-31T14:48:47;98382.75;;;18.70
75428;BMP280;64008;55.612;37.698;2023-03-31T14:51:15;98384.56;;;19.13
75428;BMP280;64008;55.612;37.698;2023-03-31T14:53:41;98381.75;;;20.74
75428;BMP280;64008;55.612;37.698;2023-03-31T14:56:18;98382.94;;;20.64
75428;BMP280;64008;55.612;37.698;2023-03-31T14:58:49;98379.66;;;20.25
75428;BMP280;64008;55.612;37.698;2023-03-31T15:01:22;98383.25;;;20.29
75428;BMP280;64008;55.612;37.698;2023-03-31T15:03:49;98384.31;;;19.95
75428;BMP280;64008;55.612;37.698;2023-03-31T15:06:16;98380.31;;;19.80
75428;BMP280;64008;55.612;37.698;2023-03-31T15:08:41;98376.84;;;19.80
75428;BMP280;64008;55.612;37.698;2023-03-31T15:11:11;98376.63;;;20.15
75428;BMP280;64008;55.612;37.698;2023-03-31T15:13:46;98369.56;;;20.89
75428;BMP280;64008;55.612;37.698;2023-03-31T15:16:34;98381.13;;;20.56
75428;BMP280;64008;55.612;37.698;2023-03-31T15:19:04;98373.81;;;20.02
75428;BMP280;64008;55.612;37.698;2023-03-31T15:21:36;98374.50;;;19.99
75428;BMP280;64008;55.612;37.698;2023-03-31T15:24:03;98377.84;;;19.75
75428;BMP280;64008;55.612;37.698;2023-03-31T15:26:34;98366.81;;;19.68
75428;BMP280;64008;55.612;37.698;2023-03-31T15:29:08;98373.94;;;19.64
75428;BMP280;64008;55.612;37.698;2023-03-31T15:31:34;98364.94;;;19.69
75428;BMP280;64008;55.612;37.698;2023-03-31T15:34:09;98373.56;;;19.74
75428;BMP280;64008;55.612;37.698;2023-03-31T15:36:37;98369.69;;;19.63
75428;BMP280;64008;55.612;37.698;2023-03-31T15:39:02;98366.72;;;19.56
75428;BMP280;64008;55.612;37.698;2023-03-31T15:41:29;98371.63;;;19.54
75428;BMP280;64008;55.612;37.698;2023-03-31T15:49:04;98375.66;;;19.39
75428;BMP280;64008;55.612;37.698;2023-03-31T15:51:35;98369.84;;;19.37
75428;BMP280;64008;55.612;37.698;2023-03-31T15:54:00;98371.59;;;19.33
75428;BMP280;64008;55.612;37.698;2023-03-31T15:56:40;98378.53;;;19.25
75428;BMP280;64008;55.612;37.698;2023-03-31T15:59:21;98374.00;;;19.17
75428;BMP280;64008;55.612;37.698;2023-03-31T16:01:48;98374.94;;;19.12
75428;BMP280;64008;55.612;37.698;2023-03-31T16:04:15;98375.13;;;19.16
75428;BMP280;64008;55.612;37.698;2023-03-31T16:06:56;98369.44;;;19.17
75428;BMP280;64008;55.612;37.698;2023-03-31T16:09:26;98374.16;;;19.20
75428;BMP280;64008;55.612;37.698;2023-03-31T16:11:56;98379.03;;;19.18
75428;BMP280;64008;55.612;37.698;2023-03-31T16:14:33;98368.31;;;19.18
75428;BMP280;64008;55.612;37.698;2023-03-31T16:17:10;98376.53;;;19.13
75428;BMP280;64008;55.612;37.698;2023-03-31T16:19:46;98379.38;;;19.08
75428;BMP280;64008;55.612;37.698;2023-03-31T16:22:16;98378.13;;;19.14
75428;BMP280;64008;55.612;37.698;2023-03-31T16:24:44;98377.19;;;19.10
75428;BMP280;64008;55.612;37.698;2023-03-31T16:27:10;98376.53;;;19.13
75428;BMP280;64008;55.612;37.698;2023-03-31T16:29:36;98374.03;;;19.08
75428;BMP280;64008;55.612;37.698;2023-03-31T16:32:15;98372.75;;;19.14
75428;BMP280;64008;55.612;37.698;2023-03-31T16:34:58;98372.25;;;19.12
75428;BMP280;64008;55.612;37.698;2023-03-31T16:37:24;98377.19;;;19.10
75428;BMP280;64008;55.612;37.698;2023-03-31T16:39:50;98366.47;;;19.10
75428;BMP280;64008;55.612;37.698;2023-03-31T16:42:17;98365.81;;;19.13
75428;BMP280;64008;55.612;37.698;2023-03-31T16:44:42;98367.56;;;19.09
75428;BMP280;64008;55.612;37.698;2023-03-31T16:47:10;98361.75;;;19.07
75428;BMP280;64008;55.612;37.698;2023-03-31T16:49:35;98367.22;;;19.19
75428;BMP280;64008;55.612;37.698;2023-03-31T16:52:01;98359.84;;;19.16
75428;BMP280;64008;55.612;37.698;2023-03-31T16:54:26;98354.03;;;19.14
75428;BMP280;64008;55.612;37.698;2023-03-31T16:56:52;98357.78;;;19.13
75428;BMP280;64008;55.612;37.698;2023-03-31T16:59:17;98363.16;;;19.13
75428;BMP280;64008;55.612;37.698;2023-03-31T17:01:43;98355.63;;;19.07